Time;durP1;ratioP1;P1;durP2;ratioP2;P2;SDS_P1;SDS_P2;PMS_P1;PMS_P2;Temp;Humidity;BMP_temperature;BMP_pressure;BME280_temperature;BME280_humidity;BME280_pressure;Samples;Min_cycle;Max_cycle;Signal;HPM_P1;HPM_P2
2022/09/22 00:00:25;;;;;;;4.77;3.73;;;13.50;51.90;;;;;;5042402;28;20444;-87
2022/09/22 00:02:57;;;;;;;6.13;4.20;;;13.40;52.10;;;;;;5058557;28;21141;-88
2022/09/22 00:05:24;;;;;;;6.10;5.60;;;13.40;52.50;;;;;;5040477;28;21453;-91
2022/09/22 00:07:52;;;;;;;4.50;3.60;;;13.30;52.50;;;;;;5041885;28;20980;-87
2022/09/22 00:10:20;;;;;;;7.30;4.07;;;13.40;52.50;;;;;;5030345;28;20438;-87
2022/09/22 00:12:47;;;;;;;3.93;3.23;;;13.40;52.20;;;;;;5057040;28;20476;-87
2022/09/22 00:15:16;;;;;;;7.13;3.40;;;13.40;52.10;;;;;;5024756;28;20552;-87
2022/09/22 00:17:43;;;;;;;3.00;2.80;;;13.40;51.90;;;;;;5003319;28;20463;-89
2022/09/22 00:20:11;;;;;;;5.10;3.47;;;13.40;52.50;;;;;;5046448;28;20444;-88
2022/09/22 00:22:38;;;;;;;5.33;3.50;;;13.40;52.00;;;;;;5008963;28;20516;-87
2022/09/22 00:25:06;;;;;;;6.80;4.10;;;13.40;51.90;;;;;;5025160;28;20457;-87
2022/09/22 00:27:33;;;;;;;3.13;2.83;;;13.40;51.80;;;;;;5026114;28;20524;-87
2022/09/22 00:30:00;;;;;;;4.30;3.30;;;13.40;51.60;;;;;;5039006;28;20468;-89
2022/09/22 00:32:28;;;;;;;5.57;3.57;;;13.40;51.50;;;;;;5030025;28;20533;-87
2022/09/22 00:34:55;;;;;;;3.30;3.00;;;13.40;51.60;;;;;;5024957;28;20963;-87
2022/09/22 00:37:22;;;;;;;4.67;3.20;;;13.40;51.70;;;;;;5063517;28;20452;-89
2022/09/22 00:39:49;;;;;;;4.90;3.53;;;13.30;51.60;;;;;;5040081;28;20481;-87
2022/09/22 00:42:17;;;;;;;5.93;3.83;;;13.30;51.30;;;;;;5011179;28;20476;-87
2022/09/22 00:44:44;;;;;;;6.47;4.43;;;13.30;51.30;;;;;;5032443;28;20444;-86
2022/09/22 00:47:27;;;;;;;16.50;10.77;;;13.10;52.20;;;;;;5016877;28;20460;-87
2022/09/22 00:49:59;;;;;;;10.53;6.50;;;13.10;52.80;;;;;;5011433;28;20445;-87
2022/09/22 00:52:30;;;;;;;4.90;4.37;;;13.00;52.30;;;;;;5053454;28;20845;-90
2022/09/22 00:55:03;;;;;;;4.20;3.60;;;13.00;52.50;;;;;;5044536;28;20471;-87
2022/09/22 00:57:33;;;;;;;3.10;2.90;;;13.00;52.30;;;;;;5028175;28;20445;-86
2022/09/22 01:00:01;;;;;;;3.10;2.63;;;13.00;52.40;;;;;;5055842;28;20438;-87
2022/09/22 01:02:28;;;;;;;3.90;2.50;;;12.60;53.40;;;;;;5056753;28;20471;-87
2022/09/22 01:04:57;;;;;;;4.30;3.80;;;12.70;53.00;;;;;;5024575;28;20452;-86
2022/09/22 01:07:28;;;;;;;21.63;15.77;;;12.80;52.40;;;;;;5036427;28;20808;-88
2022/09/22 01:09:55;;;;;;;29.43;17.30;;;12.80;51.90;;;;;;5052499;28;20937;-85
2022/09/22 01:12:24;;;;;;;37.43;17.80;;;12.70;51.80;;;;;;5035453;28;20484;-87
2022/09/22 01:15:08;;;;;;;6.57;4.60;;;12.80;52.00;;;;;;5027694;28;20453;-87
2022/09/22 01:17:44;;;;;;;6.27;3.20;;;12.90;52.30;;;;;;5035672;28;20441;-88
2022/09/22 01:20:39;;;;;;;21.07;9.27;;;12.80;52.60;;;;;;5035805;28;20818;-87
2022/09/22 01:23:24;;;;;;;22.20;11.60;;;12.80;52.90;;;;;;5054563;28;20488;-87
2022/09/22 01:26:13;;;;;;;11.80;7.00;;;12.80;52.50;;;;;;5054278;28;20456;-88
2022/09/22 01:29:07;;;;;;;4.60;4.13;;;12.90;52.20;;;;;;5022728;28;20441;-91
2022/09/22 01:31:40;;;;;;;4.77;3.40;;;12.90;51.90;;;;;;5040801;28;20975;-87
2022/09/22 01:34:11;;;;;;;8.90;4.20;;;12.90;52.30;;;;;;5023177;28;20450;-87
2022/09/22 01:36:47;;;;;;;6.57;3.73;;;12.90;52.50;;;;;;5040138;28;20457;-89
2022/09/22 01:39:18;;;;;;;4.43;3.83;;;12.90;52.80;;;;;;5041888;28;21013;-86
2022/09/22 01:41:53;;;;;;;5.30;3.30;;;12.90;53.00;;;;;;5046563;28;20484;-87
2022/09/22 01:44:25;;;;;;;5.27;3.97;;;12.80;53.00;;;;;;5026531;28;20471;-91
2022/09/22 01:46:57;;;;;;;13.27;5.77;;;12.80;53.40;;;;;;5038730;28;20453;-88
2022/09/22 01:49:28;;;;;;;7.43;5.77;;;12.80;53.00;;;;;;5023643;28;20437;-87
2022/09/22 01:51:58;;;;;;;7.50;6.80;;;12.80;53.20;;;;;;5006408;28;20469;-90
2022/09/22 01:54:31;;;;;;;5.80;5.20;;;12.70;53.30;;;;;;5054714;28;20450;-88
2022/09/22 01:57:11;;;;;;;5.17;4.13;;;12.70;53.30;;;;;;5040422;28;20852;-87
2022/09/22 01:59:41;;;;;;;4.57;4.00;;;12.70;52.90;;;;;;5010059;28;20449;-92
2022/09/22 02:02:17;;;;;;;3.87;3.30;;;12.60;53.10;;;;;;5025562;28;20466;-88
2022/09/22 02:04:49;;;;;;;5.47;3.37;;;12.60;53.20;;;;;;5037571;28;20456;-87
2022/09/22 02:07:23;;;;;;;5.23;4.00;;;12.60;53.20;;;;;;5040065;28;20434;-87
2022/09/22 02:09:51;;;;;;;9.33;5.47;;;12.70;53.30;;;;;;5022992;28;20938;-89
2022/09/22 02:12:18;;;;;;;11.23;6.77;;;12.70;53.30;;;;;;5043440;28;20482;-87
2022/09/22 02:14:46;;;;;;;7.67;4.50;;;12.70;53.50;;;;;;5062522;28;20822;-89
2022/09/22 02:17:16;;;;;;;10.80;4.80;;;12.30;54.10;;;;;;5011712;28;20452;-87
2022/09/22 02:19:43;;;;;;;10.00;4.90;;;11.50;56.20;;;;;;5039975;28;20436;-91
2022/09/22 02:22:11;;;;;;;6.00;3.80;;;11.30;57.10;;;;;;5012602;28;20488;-87
2022/09/22 02:24:40;;;;;;;9.60;4.57;;;11.10;58.10;;;;;;5028156;28;20461;-87
2022/09/22 02:27:11;;;;;;;8.27;4.27;;;11.30;57.80;;;;;;5063722;28;20486;-87
2022/09/22 02:29:42;;;;;;;7.20;3.80;;;11.10;58.60;;;;;;5060103;28;20451;-87
2022/09/22 02:32:13;;;;;;;10.37;4.53;;;11.20;58.80;;;;;;5048251;28;20489;-90
2022/09/22 02:34:42;;;;;;;39.17;6.53;;;11.00;58.80;;;;;;5027959;28;20460;-87
2022/09/22 02:37:18;;;;;;;26.30;7.43;;;10.70;59.40;;;;;;5026431;28;20436;-87
2022/09/22 02:39:49;;;;;;;64.93;8.03;;;10.40;60.50;;;;;;5025977;28;20452;-87
2022/09/22 02:42:28;;;;;;;12.63;5.30;;;10.30;60.80;;;;;;5061179;28;20491;-88
2022/09/22 02:45:00;;;;;;;8.63;4.90;;;10.30;61.70;;;;;;5063449;28;20916;-87
2022/09/22 02:47:32;;;;;;;7.90;5.30;;;10.40;61.20;;;;;;5041377;28;20496;-87
2022/09/22 02:50:04;;;;;;;101.13;9.87;;;10.60;60.70;;;;;;5044190;28;20952;-88
2022/09/22 02:52:31;;;;;;;5.07;4.33;;;10.80;59.80;;;;;;5037425;28;20473;-88
2022/09/22 02:54:58;;;;;;;7.40;5.60;;;11.00;59.80;;;;;;5033605;28;20495;-88
2022/09/22 02:57:25;;;;;;;5.50;4.90;;;11.40;58.80;;;;;;5009828;28;20449;-89
2022/09/22 02:59:52;;;;;;;16.97;5.90;;;11.40;58.30;;;;;;5048059;28;20468;-86
2022/09/22 03:02:19;;;;;;;7.80;4.70;;;11.40;58.20;;;;;;5059457;28;20491;-87
2022/09/22 03:04:45;;;;;;;19.00;5.63;;;11.50;58.00;;;;;;5038754;28;20477;-87
2022/09/22 03:07:14;;;;;;;17.33;6.17;;;11.40;58.10;;;;;;5043631;28;20456;-87
2022/09/22 03:09:41;;;;;;;8.83;5.27;;;11.20;58.70;;;;;;5046745;28;20451;-86
2022/09/22 03:12:08;;;;;;;95.93;10.63;;;11.30;58.60;;;;;;5024776;28;20831;-87
2022/09/22 03:14:35;;;;;;;113.10;10.40;;;11.20;58.30;;;;;;5045361;28;20445;-86
2022/09/22 03:17:02;;;;;;;21.77;6.13;;;11.10;58.90;;;;;;5046304;28;20459;-90
2022/09/22 03:19:28;;;;;;;10.83;4.60;;;11.30;58.60;;;;;;5012295;28;20952;-87
2022/09/22 03:21:55;;;;;;;7.53;5.17;;;11.30;58.40;;;;;;5046177;28;20597;-87
2022/09/22 03:24:24;;;;;;;8.00;5.00;;;11.30;58.00;;;;;;5039806;28;20468;-87
2022/09/22 03:26:51;;;;;;;10.20;6.07;;;11.40;57.90;;;;;;5044584;28;20445;-87
2022/09/22 03:29:18;;;;;;;61.83;7.10;;;11.40;57.40;;;;;;5059139;28;20500;-91
2022/09/22 03:31:45;;;;;;;9.17;5.73;;;11.20;58.00;;;;;;5049337;28;20826;-88
2022/09/22 03:34:12;;;;;;;14.57;5.10;;;11.00;59.00;;;;;;5033169;28;20456;-87
2022/09/22 03:36:39;;;;;;;32.27;6.17;;;11.00;58.30;;;;;;5021598;28;20517;-87
2022/09/22 03:39:06;;;;;;;22.77;6.40;;;11.10;58.00;;;;;;5032784;28;20449;-86
2022/09/22 03:41:34;;;;;;;7.20;5.10;;;10.80;59.00;;;;;;5027888;28;20460;-88
2022/09/22 03:44:01;;;;;;;7.10;5.10;;;10.90;59.00;;;;;;5039546;28;20519;-88
2022/09/22 03:46:29;;;;;;;9.57;5.33;;;11.10;58.20;;;;;;5027304;28;20445;-91
2022/09/22 03:48:56;;;;;;;22.73;8.00;;;11.30;57.60;;;;;;5056760;28;20448;-87
2022/09/22 03:51:23;;;;;;;8.33;5.80;;;11.30;57.70;;;;;;5042462;28;20478;-89
2022/09/22 03:53:50;;;;;;;24.87;7.40;;;11.40;57.70;;;;;;5059500;28;20448;-87
2022/09/22 03:56:17;;;;;;;31.87;6.77;;;11.40;57.60;;;;;;5057026;28;20502;-89
2022/09/22 03:58:46;;;;;;;13.93;7.60;;;11.40;57.60;;;;;;5032477;28;21326;-87
2022/09/22 04:01:13;;;;;;;44.40;8.77;;;11.50;57.70;;;;;;5030013;28;20453;-87
2022/09/22 04:03:40;;;;;;;31.97;7.47;;;11.60;57.40;;;;;;5026808;28;20494;-88
2022/09/22 04:06:08;;;;;;;56.13;7.90;;;11.60;57.60;;;;;;5033753;28;20449;-90
2022/09/22 04:08:35;;;;;;;79.07;10.17;;;11.60;57.80;;;;;;5040284;28;20450;-88
2022/09/22 04:11:02;;;;;;;82.33;9.90;;;11.80;57.50;;;;;;5053964;28;20449;-87
2022/09/22 04:13:29;;;;;;;202.23;15.97;;;11.70;57.50;;;;;;5059342;28;20480;-87
2022/09/22 04:15:57;;;;;;;23.40;7.07;;;11.80;57.30;;;;;;5057539;28;20800;-87
2022/09/22 04:18:25;;;;;;;73.87;8.33;;;11.50;58.20;;;;;;5056923;28;20444;-87
2022/09/22 04:20:56;;;;;;;45.07;8.40;;;11.60;58.00;;;;;;5037422;28;20460;-88
2022/09/22 04:23:23;;;;;;;33.77;9.60;;;11.50;58.10;;;;;;5020905;28;20536;-89
2022/09/22 04:25:50;;;;;;;27.53;8.93;;;11.50;58.20;;;;;;5059330;28;20555;-88
2022/09/22 04:28:17;;;;;;;25.30;8.20;;;11.60;57.90;;;;;;5037195;28;20458;-87
2022/09/22 04:30:44;;;;;;;55.23;8.67;;;11.40;58.50;;;;;;5059107;28;20932;-87
2022/09/22 04:33:12;;;;;;;19.67;6.80;;;11.50;58.20;;;;;;5037387;28;20466;-88
2022/09/22 04:35:39;;;;;;;76.17;9.30;;;11.50;58.20;;;;;;5033973;28;20457;-86
2022/09/22 04:38:06;;;;;;;16.27;6.53;;;11.60;58.10;;;;;;5055170;28;20988;-89
2022/09/22 04:40:33;;;;;;;14.50;6.60;;;11.70;58.00;;;;;;5040671;28;21369;-88
2022/09/22 04:43:00;;;;;;;19.93;6.90;;;11.70;58.20;;;;;;5034029;28;20477;-88
2022/09/22 04:45:27;;;;;;;13.20;5.90;;;11.70;57.90;;;;;;5046699;28;20968;-87
2022/09/22 04:47:54;;;;;;;43.10;7.73;;;11.60;57.90;;;;;;5022281;28;21440;-87
2022/09/22 04:50:23;;;;;;;26.03;7.13;;;11.60;57.80;;;;;;5019897;28;20455;-87
2022/09/22 04:52:52;;;;;;;31.47;9.57;;;11.50;58.00;;;;;;5050193;28;20551;-86
2022/09/22 04:55:19;;;;;;;11.93;5.60;;;11.70;58.10;;;;;;5031829;28;20504;-85
2022/09/22 04:57:48;;;;;;;15.60;5.53;;;11.70;57.90;;;;;;5049286;28;20956;-84
2022/09/22 05:00:16;;;;;;;40.07;7.73;;;11.70;58.10;;;;;;5018052;28;20536;-86
2022/09/22 05:02:42;;;;;;;60.90;8.80;;;11.80;57.80;;;;;;5028394;28;20473;-86
2022/09/22 05:05:10;;;;;;;41.13;8.53;;;11.80;57.10;;;;;;5034846;28;20842;-87
2022/09/22 05:07:41;;;;;;;24.17;6.87;;;11.80;57.40;;;;;;5017349;28;20975;-87
2022/09/22 05:10:09;;;;;;;59.43;9.03;;;11.80;57.50;;;;;;5052611;28;20447;-86
2022/09/22 05:12:39;;;;;;;26.97;6.73;;;11.70;57.70;;;;;;5039378;28;20477;-90
2022/09/22 05:15:07;;;;;;;44.67;9.43;;;11.50;57.80;;;;;;5035242;28;20485;-88
2022/09/22 05:17:35;;;;;;;22.10;6.70;;;11.40;58.20;;;;;;5026632;28;20805;-91
2022/09/22 05:20:02;;;;;;;50.57;7.77;;;11.50;58.40;;;;;;5037000;28;20461;-86
2022/09/22 05:22:29;;;;;;;15.47;6.70;;;11.60;58.50;;;;;;5020844;28;20837;-87
2022/09/22 05:24:58;;;;;;;25.63;8.17;;;11.70;58.10;;;;;;5041417;28;20468;-88
2022/09/22 05:27:25;;;;;;;67.20;9.00;;;11.60;57.80;;;;;;5015954;28;20454;-86
2022/09/22 05:29:52;;;;;;;29.27;6.90;;;11.40;58.00;;;;;;5031751;28;20469;-87
2022/09/22 05:32:19;;;;;;;38.50;8.47;;;11.50;58.30;;;;;;4999634;28;20483;-85
2022/09/22 05:34:46;;;;;;;23.63;7.83;;;11.40;58.20;;;;;;5032742;28;20461;-85
2022/09/22 05:37:12;;;;;;;64.27;8.77;;;11.40;57.90;;;;;;5033656;28;20960;-89
2022/09/22 05:39:39;;;;;;;44.50;8.03;;;11.20;58.10;;;;;;5042842;28;20614;-85
2022/09/22 05:42:08;;;;;;;26.70;5.70;;;11.30;58.90;;;;;;5034885;28;20474;-86
2022/09/22 05:44:35;;;;;;;14.30;5.40;;;11.30;58.40;;;;;;5038028;28;21207;-86
2022/09/22 05:47:01;;;;;;;19.73;7.43;;;11.40;58.30;;;;;;5053767;28;20473;-86
2022/09/22 05:49:28;;;;;;;31.30;7.23;;;11.50;57.80;;;;;;5050296;28;21117;-84
2022/09/22 05:51:56;;;;;;;119.07;9.77;;;11.50;57.80;;;;;;5022867;28;21231;-86
2022/09/22 05:54:23;;;;;;;78.53;9.60;;;11.40;57.40;;;;;;5042421;28;20471;-87
2022/09/22 05:56:51;;;;;;;30.53;6.67;;;11.30;57.80;;;;;;5037891;28;20492;-92
2022/09/22 05:59:19;;;;;;;37.37;7.97;;;11.20;58.00;;;;;;5020895;28;20444;-88
2022/09/22 06:01:46;;;;;;;41.80;8.40;;;11.10;58.80;;;;;;5021719;28;20465;-89
2022/09/22 06:04:13;;;;;;;13.83;7.00;;;11.10;58.80;;;;;;5054132;28;20498;-87
2022/09/22 06:06:40;;;;;;;39.23;7.17;;;11.30;58.80;;;;;;5039629;28;20445;-89
2022/09/22 06:09:07;;;;;;;65.30;9.03;;;11.20;58.60;;;;;;5035678;28;20471;-87
2022/09/22 06:11:34;;;;;;;6.27;4.87;;;11.20;58.30;;;;;;5024509;28;21115;-88
2022/09/22 06:14:01;;;;;;;39.70;7.27;;;11.20;58.60;;;;;;5058052;28;21201;-87
2022/09/22 06:16:30;;;;;;;21.07;6.77;;;11.00;58.80;;;;;;5054830;28;20480;-89
2022/09/22 06:18:57;;;;;;;20.23;7.60;;;10.90;59.10;;;;;;5010530;28;20457;-88
2022/09/22 06:21:24;;;;;;;30.97;11.30;;;11.10;58.90;;;;;;5051680;28;20455;-88
2022/09/22 06:23:51;;;;;;;112.77;8.37;;;11.20;58.80;;;;;;5038253;28;20527;-89
2022/09/22 06:26:18;;;;;;;66.90;8.97;;;11.20;58.20;;;;;;5037258;28;20450;-89
2022/09/22 06:28:46;;;;;;;30.07;6.23;;;11.10;58.00;;;;;;5038383;28;20457;-91
2022/09/22 06:31:13;;;;;;;49.47;8.53;;;11.00;59.10;;;;;;5043781;28;20507;-90
2022/09/22 06:33:47;;;;;;;8.13;5.90;;;11.10;59.00;;;;;;5034761;28;20515;-91
2022/09/22 06:36:16;;;;;;;29.80;9.60;;;11.10;59.00;;;;;;5008977;28;20437;-87
2022/09/22 06:38:43;;;;;;;30.67;8.60;;;11.30;58.70;;;;;;5036063;28;20463;-88
2022/09/22 06:41:10;;;;;;;32.17;7.77;;;11.50;58.40;;;;;;5054956;28;20445;-88
2022/09/22 06:43:37;;;;;;;57.40;9.00;;;11.70;58.10;;;;;;5053197;28;20995;-89
2022/09/22 06:46:04;;;;;;;111.90;11.13;;;11.70;57.90;;;;;;5036464;28;20452;-90
2022/09/22 06:48:31;;;;;;;26.40;7.60;;;11.70;57.40;;;;;;5038520;28;20502;-88
2022/09/22 06:50:59;;;;;;;26.13;7.43;;;11.50;57.50;;;;;;5016550;28;20456;-87
2022/09/22 06:53:26;;;;;;;16.07;6.90;;;11.50;57.40;;;;;;5019143;28;20515;-87
2022/09/22 06:55:53;;;;;;;16.80;6.00;;;11.30;58.30;;;;;;5034713;28;20530;-87
2022/09/22 06:58:20;;;;;;;13.43;7.00;;;11.30;58.60;;;;;;5049241;28;21158;-87
2022/09/22 07:00:48;;;;;;;10.93;6.50;;;11.40;58.00;;;;;;5048329;28;20559;-87
2022/09/22 07:03:19;;;;;;;32.70;8.77;;;11.40;58.30;;;;;;5035246;28;20848;-88
2022/09/22 07:05:53;;;;;;;18.83;6.43;;;11.40;58.00;;;;;;5042270;28;20480;-88
2022/09/22 07:08:23;;;;;;;25.93;6.60;;;11.50;58.00;;;;;;5015170;28;20527;-88
2022/09/22 07:10:55;;;;;;;16.90;7.53;;;11.20;58.50;;;;;;5020274;28;20539;-87
2022/09/22 07:13:22;;;;;;;23.63;9.57;;;11.30;58.70;;;;;;5031359;28;20456;-87
2022/09/22 07:15:48;;;;;;;9.93;6.73;;;11.50;58.50;;;;;;5024547;28;20458;-88
2022/09/22 07:18:15;;;;;;;13.73;7.10;;;11.40;58.70;;;;;;5034668;28;20469;-88
2022/09/22 07:20:44;;;;;;;19.03;8.43;;;11.20;59.20;;;;;;5057347;28;20449;-88
2022/09/22 07:23:19;;;;;;;56.83;8.07;;;11.10;59.50;;;;;;5044129;28;20473;-88
2022/09/22 07:25:55;;;;;;;14.70;8.73;;;11.30;59.40;;;;;;5029218;28;21044;-91
2022/09/22 07:28:22;;;;;;;18.23;14.53;;;11.50;58.80;;;;;;5042122;28;20441;-88
2022/09/22 07:30:49;;;;;;;15.80;8.40;;;11.70;58.60;;;;;;5013907;28;20446;-88
2022/09/22 07:33:20;;;;;;;31.57;9.70;;;11.60;58.60;;;;;;5029451;28;20474;-88
2022/09/22 07:35:46;;;;;;;40.47;8.30;;;11.70;58.50;;;;;;5030223;28;20445;-87
2022/09/22 07:38:13;;;;;;;16.10;6.10;;;11.50;59.30;;;;;;5048149;28;20558;-87
2022/09/22 07:40:50;;;;;;;34.83;9.00;;;11.50;58.80;;;;;;5023842;28;21104;-87
2022/09/22 07:43:18;;;;;;;9.83;6.43;;;11.70;58.90;;;;;;5040886;28;20492;-88
2022/09/22 07:45:53;;;;;;;19.10;6.73;;;11.70;59.00;;;;;;5038097;28;20515;-87
2022/09/22 07:48:41;;;;;;;12.13;7.03;;;11.50;59.20;;;;;;5039462;28;20453;-87
2022/09/22 07:51:10;;;;;;;16.20;8.43;;;11.40;59.50;;;;;;5036122;28;20461;-86
2022/09/22 07:53:39;;;;;;;16.63;7.60;;;11.70;59.30;;;;;;5054830;28;20482;-88
2022/09/22 07:56:08;;;;;;;11.27;6.20;;;11.70;59.00;;;;;;5031804;28;20443;-89
2022/09/22 07:58:36;;;;;;;25.43;8.33;;;11.80;58.80;;;;;;5056787;28;20449;-87
2022/09/22 08:01:08;;;;;;;13.03;6.50;;;11.70;58.60;;;;;;5022236;28;20457;-89
2022/09/22 08:03:36;;;;;;;9.90;5.03;;;11.80;59.10;;;;;;5045750;28;20846;-88
2022/09/22 08:06:09;;;;;;;14.53;8.63;;;11.90;59.00;;;;;;5025212;28;20853;-87
2022/09/22 08:08:37;;;;;;;13.33;7.40;;;12.10;58.70;;;;;;5028664;28;20448;-87
2022/09/22 08:11:06;;;;;;;17.30;7.17;;;12.00;58.90;;;;;;5024100;28;20473;-86
2022/09/22 08:13:35;;;;;;;10.20;6.27;;;12.10;58.90;;;;;;5051318;28;20476;-87
2022/09/22 08:16:04;;;;;;;9.00;6.53;;;12.40;58.60;;;;;;5038073;28;21317;-90
2022/09/22 08:18:34;;;;;;;13.43;7.10;;;12.50;58.30;;;;;;5033382;28;21091;-87
2022/09/22 08:21:02;;;;;;;11.50;7.10;;;12.80;58.10;;;;;;5054324;28;21037;-87
2022/09/22 08:23:30;;;;;;;9.10;6.30;;;12.70;57.60;;;;;;5054513;28;20557;-88
2022/09/22 08:25:57;;;;;;;7.17;5.87;;;12.70;57.60;;;;;;5034767;28;20469;-88
2022/09/22 08:28:24;;;;;;;9.20;6.63;;;12.60;58.10;;;;;;5033960;28;20514;-87
2022/09/22 08:30:51;;;;;;;15.03;8.07;;;12.60;58.00;;;;;;5029636;28;20459;-87
2022/09/22 08:33:19;;;;;;;12.37;10.27;;;12.80;58.20;;;;;;5035869;28;20482;-87
2022/09/22 08:35:57;;;;;;;8.87;7.43;;;12.70;58.20;;;;;;5027337;28;20472;-87
2022/09/22 08:38:27;;;;;;;14.10;7.70;;;12.60;58.70;;;;;;5040688;28;20548;-88
2022/09/22 08:41:14;;;;;;;10.03;7.37;;;12.60;58.60;;;;;;5026232;28;20584;-88
2022/09/22 08:43:46;;;;;;;11.50;8.47;;;12.60;59.50;;;;;;5020507;28;20461;-87
2022/09/22 08:46:15;;;;;;;12.03;8.00;;;12.70;58.60;;;;;;5022297;28;20449;-88
2022/09/22 08:51:52;;;;;;;13.30;8.00;;;12.70;59.00;;;;;;5006505;28;20454;-88
2022/09/22 08:54:22;;;;;;;14.60;8.60;;;12.90;58.70;;;;;;5037421;28;20437;-88
2022/09/22 08:56:56;;;;;;;14.90;7.80;;;13.20;58.50;;;;;;5038371;28;20452;-89
2022/09/22 08:59:30;;;;;;;16.13;8.93;;;13.40;58.10;;;;;;5007950;28;20448;-88
2022/09/22 09:02:14;;;;;;;11.90;8.50;;;13.40;58.40;;;;;;5035903;28;20504;-88
2022/09/22 09:05:07;;;;;;;12.90;8.43;;;13.50;58.60;;;;;;5031673;28;20450;-88
2022/09/22 09:07:44;;;;;;;10.87;7.37;;;13.60;58.50;;;;;;5031693;28;20463;-88
2022/09/22 09:10:33;;;;;;;12.57;6.10;;;13.90;58.30;;;;;;5043722;28;20844;-88
2022/09/22 09:13:26;;;;;;;8.53;6.80;;;14.00;58.10;;;;;;5021524;28;21264;-87
2022/09/22 09:16:05;;;;;;;11.73;6.47;;;14.10;57.80;;;;;;5052391;28;20542;-88
2022/09/22 09:18:34;;;;;;;8.80;6.67;;;14.30;57.90;;;;;;5008916;28;20456;-88
2022/09/22 09:21:07;;;;;;;7.20;5.97;;;14.30;58.20;;;;;;5036569;28;20446;-88
2022/09/22 09:23:44;;;;;;;5.93;5.27;;;14.40;58.10;;;;;;5035146;28;20479;-88
2022/09/22 09:26:13;;;;;;;6.90;5.80;;;14.50;58.10;;;;;;5016373;28;20465;-88
2022/09/22 09:28:44;;;;;;;8.77;5.80;;;14.70;57.90;;;;;;5059979;28;20503;-88
2022/09/22 09:31:18;;;;;;;8.60;5.70;;;14.70;58.20;;;;;;5032881;28;20633;-88
2022/09/22 09:33:55;;;;;;;6.50;5.17;;;15.00;58.00;;;;;;5033608;28;20460;-88
2022/09/22 09:36:30;;;;;;;8.80;5.60;;;15.30;57.60;;;;;;5041532;28;20449;-89
2022/09/22 09:38:58;;;;;;;7.77;5.23;;;15.40;57.20;;;;;;5017420;28;20437;-89
2022/09/22 09:41:31;;;;;;;9.63;5.93;;;15.60;57.20;;;;;;5030223;28;20522;-89
2022/09/22 09:43:59;;;;;;;8.43;5.53;;;15.80;56.80;;;;;;5029765;28;20449;-88
2022/09/22 09:46:50;;;;;;;6.77;5.27;;;16.00;57.40;;;;;;5042384;28;20599;-85
2022/09/22 09:49:20;;;;;;;7.67;5.37;;;16.10;56.00;;;;;;5052506;28;20962;-89
2022/09/22 09:51:51;;;;;;;6.43;4.30;;;16.30;56.20;;;;;;5062153;28;20480;-86
2022/09/22 09:54:19;;;;;;;6.10;5.00;;;16.60;55.70;;;;;;5048880;28;20533;-87
2022/09/22 09:57:08;;;;;;;9.27;4.57;;;16.60;55.50;;;;;;5046195;28;20510;-87
2022/09/22 10:02:26;;;;;;;4.67;4.10;;;16.70;55.30;;;;;;5022644;28;21010;-87
2022/09/22 10:04:55;;;;;;;6.73;4.00;;;16.90;55.40;;;;;;5037872;28;20450;-88
2022/09/22 10:07:27;;;;;;;5.57;3.60;;;17.00;54.80;;;;;;5027908;28;20465;-90
2022/09/22 10:09:55;;;;;;;7.00;4.20;;;17.20;54.50;;;;;;5027693;28;20549;-88
2022/09/22 10:12:24;;;;;;;4.90;4.40;;;17.50;54.60;;;;;;5015972;28;20473;-88
2022/09/22 10:14:53;;;;;;;5.00;3.77;;;17.70;53.60;;;;;;5017765;28;21016;-87
2022/09/22 10:17:22;;;;;;;4.10;3.70;;;17.70;54.20;;;;;;5022579;28;20438;-88
2022/09/22 10:19:50;;;;;;;13.60;3.87;;;17.80;53.50;;;;;;5032424;28;20941;-88
2022/09/22 10:22:24;;;;;;;6.90;3.10;;;18.00;53.40;;;;;;5020435;28;20555;-88
2022/09/22 10:25:00;;;;;;;5.47;3.43;;;18.20;52.60;;;;;;5031133;28;20826;-88
2022/09/22 10:27:29;;;;;;;3.80;2.90;;;18.40;52.10;;;;;;5033953;28;20562;-88
2022/09/22 10:30:22;;;;;;;3.33;3.03;;;18.30;51.10;;;;;;5037681;28;20465;-88
2022/09/22 10:33:06;;;;;;;3.43;2.57;;;18.10;50.70;;;;;;5030084;28;20469;-90
2022/09/22 10:35:34;;;;;;;4.97;3.50;;;18.20;50.30;;;;;;5030001;28;20438;-88
2022/09/22 10:38:08;;;;;;;3.80;2.80;;;18.50;50.40;;;;;;5057747;28;20468;-89
2022/09/22 10:40:38;;;;;;;8.17;3.17;;;18.90;49.90;;;;;;5023438;28;21386;-90
2022/09/22 10:43:13;;;;;;;5.23;2.80;;;19.10;49.20;;;;;;5028840;28;20529;-88
2022/09/22 10:45:47;;;;;;;3.37;2.67;;;19.30;48.40;;;;;;5018132;28;20443;-91
2022/09/22 10:48:25;;;;;;;2.50;2.23;;;19.70;48.20;;;;;;5044779;28;20951;-90
2022/09/22 10:51:01;;;;;;;2.07;1.70;;;19.80;47.50;;;;;;5021854;28;20538;-91
2022/09/22 10:53:41;;;;;;;1.63;1.50;;;19.90;41.70;;;;;;5022446;28;21047;-88
2022/09/22 10:56:16;;;;;;;2.07;1.60;;;19.80;41.10;;;;;;5054808;28;20476;-88
2022/09/22 10:59:10;;;;;;;2.10;1.57;;;20.10;42.10;;;;;;5037078;28;20503;-89
2022/09/22 11:01:51;;;;;;;1.67;1.57;;;20.40;39.70;;;;;;5033606;28;20484;-89
2022/09/22 11:04:54;;;;;;;2.13;1.43;;;20.70;39.60;;;;;;5036187;28;20460;-89
2022/09/22 11:13:38;;;;;;;2.37;1.40;;;20.30;37.70;;;;;;5046291;28;20473;-89
2022/09/22 11:16:27;;;;;;;1.67;1.50;;;20.30;37.60;;;;;;5026674;28;21369;-91
2022/09/22 11:19:12;;;;;;;2.43;1.30;;;20.50;38.30;;;;;;5038751;28;20449;-88
2022/09/22 11:21:52;;;;;;;1.50;1.40;;;20.90;38.70;;;;;;5026976;28;21162;-89
2022/09/22 11:24:37;;;;;;;3.60;1.50;;;20.90;35.90;;;;;;5037899;28;20440;-89
2022/09/22 11:27:12;;;;;;;3.83;1.60;;;21.20;37.50;;;;;;5053791;28;20454;-89
2022/09/22 11:30:03;;;;;;;1.70;1.60;;;21.40;36.10;;;;;;5052229;28;20479;-89
2022/09/22 11:32:48;;;;;;;1.90;1.80;;;21.10;35.80;;;;;;5038542;28;20535;-89
2022/09/22 11:35:40;;;;;;;2.20;1.80;;;21.00;37.10;;;;;;5055706;28;20586;-90
2022/09/22 11:38:29;;;;;;;2.90;1.60;;;20.90;35.00;;;;;;5037721;28;20442;-88
2022/09/22 11:41:09;;;;;;;2.90;1.37;;;20.90;36.70;;;;;;5022018;28;20441;-88
2022/09/22 11:43:55;;;;;;;3.10;1.70;;;20.80;37.10;;;;;;5033275;28;20531;-89
2022/09/22 11:46:32;;;;;;;1.40;1.30;;;21.20;39.20;;;;;;5039614;28;20843;-89
2022/09/22 11:49:11;;;;;;;2.30;1.60;;;21.50;35.10;;;;;;5035506;28;21204;-89
2022/09/22 11:51:56;;;;;;;1.70;1.60;;;21.60;33.80;;;;;;5017476;28;21109;-89
2022/09/22 11:54:39;;;;;;;1.77;1.20;;;22.00;35.00;;;;;;5046865;28;20863;-88
2022/09/22 11:57:11;;;;;;;1.83;1.30;;;21.90;33.60;;;;;;5015170;28;20436;-88
2022/09/22 11:59:44;;;;;;;2.07;1.43;;;21.70;35.00;;;;;;5032033;28;20444;-89
2022/09/22 12:02:17;;;;;;;3.53;1.53;;;21.80;33.90;;;;;;5021561;28;21289;-89
2022/09/22 12:04:49;;;;;;;6.03;1.63;;;21.60;33.90;;;;;;5021294;28;20444;-88
2022/09/22 12:07:22;;;;;;;1.97;1.40;;;21.70;34.10;;;;;;5032450;28;20471;-87
2022/09/22 12:09:53;;;;;;;2.07;1.87;;;21.50;33.40;;;;;;5047819;28;20449;-88
2022/09/22 12:12:22;;;;;;;2.30;1.60;;;21.50;33.20;;;;;;5000043;28;20476;-89
2022/09/22 12:14:58;;;;;;;3.00;2.10;;;21.60;33.30;;;;;;5039894;28;20946;-89
2022/09/22 12:17:29;;;;;;;2.33;1.70;;;21.80;33.20;;;;;;5001140;28;20449;-88
2022/09/22 12:20:04;;;;;;;3.07;1.87;;;21.60;33.60;;;;;;5051681;28;21027;-88
2022/09/22 12:22:36;;;;;;;2.33;1.37;;;21.50;33.60;;;;;;5050874;28;20478;-89
2022/09/22 12:25:03;;;;;;;1.60;1.40;;;21.80;33.50;;;;;;5022697;28;20455;-89
2022/09/22 12:27:31;;;;;;;2.37;2.00;;;22.00;33.60;;;;;;5016537;28;20947;-89
2022/09/22 12:30:03;;;;;;;1.63;1.53;;;22.00;33.70;;;;;;5014392;28;20457;-88
2022/09/22 12:32:38;;;;;;;7.07;1.60;;;22.10;33.20;;;;;;5052537;28;20552;-89
2022/09/22 12:35:06;;;;;;;1.80;1.40;;;22.30;32.70;;;;;;5050869;28;20453;-89
2022/09/22 12:37:37;;;;;;;2.60;1.43;;;22.40;32.10;;;;;;5023971;28;20454;-88
2022/09/22 12:40:22;;;;;;;2.90;1.37;;;22.60;32.10;;;;;;5032373;28;20822;-88
2022/09/22 12:42:52;;;;;;;2.00;1.37;;;22.70;31.20;;;;;;5032354;28;20568;-89
2022/09/22 12:45:28;;;;;;;2.67;1.47;;;22.90;31.00;;;;;;5028827;28;20477;-90
2022/09/22 12:47:57;;;;;;;1.73;1.27;;;23.10;29.60;;;;;;5046810;28;20484;-89
2022/09/22 12:50:34;;;;;;;2.33;1.30;;;23.30;30.90;;;;;;5039697;28;20460;-89
2022/09/22 12:53:05;;;;;;;2.07;1.87;;;23.60;31.40;;;;;;5029855;28;20894;-89
2022/09/22 12:55:38;;;;;;;1.57;1.30;;;23.50;31.30;;;;;;5033013;28;21140;-94
2022/09/22 12:58:47;;;;;;;1.60;1.30;;;23.70;30.80;;;;;;5023001;28;20475;-89
2022/09/22 13:01:35;;;;;;;2.00;1.40;;;23.40;30.40;;;;;;5054604;28;20445;-89
2022/09/22 13:04:13;;;;;;;1.23;1.13;;;23.10;30.90;;;;;;5021750;28;20468;-89
2022/09/22 13:06:55;;;;;;;2.30;1.30;;;23.10;31.50;;;;;;5013639;28;20455;-88
2022/09/22 13:09:24;;;;;;;1.80;1.70;;;22.90;30.80;;;;;;5031783;28;20438;-88
2022/09/22 13:12:31;;;;;;;1.20;1.03;;;22.70;31.80;;;;;;5032646;28;20941;-88
2022/09/22 13:15:11;;;;;;;4.67;1.33;;;22.90;30.90;;;;;;5033429;28;20473;-89